Oakland, MD (21550)

6:37 PM EDT on June 20, 2018 (GMT -0400)
Mountain Lake Park - Broadford Lake | | Change Station
Active Advisory: Flash Flood Watch Active Notice: Flash Flood Watch

Elev 2521 ft 39.41 °N, 79.38 °W | Updated 7 seconds ago

Rain
Rain
67.3 °F
Feels Like 67.3 °F
N
0
Wind Variable Wind from West
Gusts 0.0 mph

Today
High -- | Low -- °F
--% Chance of Precip.
Yesterday
High -- | Low -- °F
Precip. -- in
Pressure 29.90 in
Visibility 4.0 miles
Clouds Scattered Clouds 300 ft
Mostly Cloudy 700 ft
Overcast 1700 ft
Dew Point 67 °F
Humidity 99%
Rainfall 0.43 in
Snow Depth Not available.
5:50 AM 8:47 PM
First Quarter, 55% visible
METAR K2G4 202215Z AUTO 24004KT 4SM SCT003 BKN007 OVC017 17/17 A2990 RMK AO1
Pressure 29.90 in
Visibility 4.0 miles
Clouds Scattered Clouds 300 ft
Mostly Cloudy 700 ft
Overcast 1700 ft
Dew Point 67 °F
Humidity 99%
Rainfall 0.43 in
Snow Depth Not available.
5:50 AM 8:47 PM
First Quarter, 55% visible
METAR K2G4 202215Z AUTO 24004KT 4SM SCT003 BKN007 OVC017 17/17 A2990 RMK AO1

Get Your Daily Forecast Email!

Thanks for signing up!

Be on the lookout for a verification email in your inbox.

You'll start receiving severe weather alerts in your inbox..

×

10-Day Weather Forecast

Almanac

Astronomy

Jun. 20, 2018 Rise Set
Actual Time
Civil Twilight
Nautical Twilight
Astronomical Twilight
Moon
Length of Visible Light
Length of Day
Tomorrow will be .
, % of the Moon is Illuminated

Today's Extremes

State Highs State Lows

Community

WunderPhotos

Category 6

Welcome to Category 6. This is the collective home for Weather Underground's featured writeups by Dr. Jeff Masters (right), Bob Henson (left), Chris Burt, and other regular contributors.

Nearby

Air Quality

  Air Quality AQ Index Pollutant
Not available.

Snow Depth

Station Depth Elevation

Earthquake Activity

City Distance Mag. Time & Date
Minimum magnitude displayed is 2.5.

Coastal Water Temperatures

Place Temperature

Stations

Nearby Weather Stations

Station Location Temp. Windchill Dew Point Humidity Wind Precip. Elev Updated Type
                   

Watches & Warnings

Flash Flood Watch
Issued: 1:54 PM EDT Jun. 20, 2018 – National Weather Service

... Flash Flood Watch remains in effect until 10 PM EDT this
evening...

The Flash Flood Watch continues for

* portions of southwest Pennsylvania, northern West Virginia, and
Garrett County in western Maryland.

* Until 10 PM EDT this evening

* rainfall totals of 1.5 to 2.5 inches are expected with locally
higher amounts possible.

* Flash flooding of urban areas, small streams, and roads may
result. Landslides are also a concern.

Precautionary/preparedness actions...

A Flash Flood Watch means that conditions may develop that lead
to flash flooding. Flash flooding is a very dangerous situation.

You should monitor later forecasts and be prepared to take action
should flash flood warnings be issued.